Time;durP1;ratioP1;P1;durP2;ratioP2;P2;SDS_P1;SDS_P2;PMS_P1;PMS_P2;Temp;Humidity;BMP_temperature;BMP_pressure;BME280_temperature;BME280_humidity;BME280_pressure;Samples;Min_cycle;Max_cycle;Signal;HPM_P1;HPM_P2
2023/03/07 00:00:55;;;;;;;32.27;22.17;;;;;;;2.87;100.00;98815.16;4955490;28;20724;-61
2023/03/07 00:03:20;;;;;;;27.03;21.07;;;;;;;2.92;100.00;98807.34;4977276;28;20500;-60
2023/03/07 00:05:45;;;;;;;34.13;23.70;;;;;;;3.00;100.00;98805.31;4972514;28;20636;-61
2023/03/07 00:08:11;;;;;;;30.37;22.27;;;;;;;2.84;100.00;98801.78;4977395;28;20199;-60
2023/03/07 00:10:36;;;;;;;31.37;24.23;;;;;;;2.88;100.00;98798.22;4961448;28;20245;-62
2023/03/07 00:13:02;;;;;;;32.13;23.83;;;;;;;2.90;100.00;98799.81;4970825;28;20230;-62
2023/03/07 00:15:29;;;;;;;32.20;23.40;;;;;;;2.83;100.00;98793.34;4962125;28;20631;-61
2023/03/07 00:17:54;;;;;;;29.27;23.43;;;;;;;2.82;100.00;98799.31;4972529;28;21100;-62
2023/03/07 00:20:20;;;;;;;31.87;23.13;;;;;;;2.90;100.00;98801.50;4970161;28;20213;-62
2023/03/07 00:22:45;;;;;;;30.23;23.10;;;;;;;2.76;100.00;98799.56;4986398;28;20283;-62
2023/03/07 00:25:11;;;;;;;33.97;24.77;;;;;;;2.70;100.00;98794.75;4973510;28;20176;-62
2023/03/07 00:27:37;;;;;;;31.07;23.90;;;;;;;2.78;100.00;98792.72;4960262;28;20633;-62
2023/03/07 00:30:04;;;;;;;34.57;24.33;;;;;;;2.85;100.00;98785.66;4970423;28;20207;-62
2023/03/07 00:32:29;;;;;;;32.03;24.80;;;;;;;2.93;100.00;98786.13;4978781;28;20187;-61
2023/03/07 00:34:56;;;;;;;35.00;25.30;;;;;;;2.94;100.00;98782.72;4969424;28;20193;-64
2023/03/07 00:37:22;;;;;;;32.63;24.03;;;;;;;3.02;100.00;98784.91;4972906;28;20215;-61
2023/03/07 00:39:47;;;;;;;31.07;24.43;;;;;;;2.98;100.00;98783.41;4972071;28;20212;-62
2023/03/07 00:42:13;;;;;;;36.63;25.87;;;;;;;2.94;100.00;98781.88;4978012;28;20230;-61
2023/03/07 00:44:38;;;;;;;31.73;24.43;;;;;;;2.87;100.00;98774.53;4973065;28;20271;-61
2023/03/07 00:47:04;;;;;;;33.20;23.57;;;;;;;2.89;100.00;98772.75;4971458;28;20982;-62
2023/03/07 00:49:29;;;;;;;33.30;24.73;;;;;;;2.94;100.00;98774.25;4971880;28;20179;-61
2023/03/07 00:51:55;;;;;;;30.97;23.10;;;;;;;2.96;100.00;98780.91;4977035;28;20234;-63
2023/03/07 00:54:20;;;;;;;32.33;24.30;;;;;;;2.96;100.00;98763.13;4973928;28;20192;-62
2023/03/07 00:56:45;;;;;;;29.97;23.07;;;;;;;3.08;100.00;98774.47;4972766;28;20179;-60
2023/03/07 00:59:11;;;;;;;30.63;23.40;;;;;;;3.01;100.00;98766.28;4972557;28;20456;-60
2023/03/07 01:01:36;;;;;;;32.03;24.03;;;;;;;3.11;100.00;98760.81;4974823;28;20699;-60
2023/03/07 01:04:02;;;;;;;28.77;21.73;;;;;;;3.12;100.00;98760.72;4975419;28;20219;-60
2023/03/07 01:06:30;;;;;;;29.97;23.60;;;;;;;3.13;100.00;98757.28;4972074;28;20647;-60
2023/03/07 01:08:58;;;;;;;29.43;23.97;;;;;;;3.27;100.00;98750.75;4974634;28;20543;-61
2023/03/07 01:11:25;;;;;;;30.83;23.50;;;;;;;3.13;100.00;98744.59;4964682;28;20249;-60
2023/03/07 01:13:50;;;;;;;33.40;23.67;;;;;;;3.19;100.00;98748.59;4968886;28;20198;-64
2023/03/07 01:16:24;;;;;;;31.80;22.80;;;;;;;3.01;100.00;98745.97;4970646;28;20188;-61
2023/03/07 01:18:57;;;;;;;27.77;21.60;;;;;;;2.98;100.00;98747.84;4960124;28;20227;-59
2023/03/07 01:21:25;;;;;;;30.30;23.77;;;;;;;3.09;100.00;98743.09;4964394;28;20302;-60
2023/03/07 01:23:51;;;;;;;30.00;22.63;;;;;;;3.14;100.00;98741.16;4971200;28;20224;-61
2023/03/07 01:26:19;;;;;;;32.03;23.93;;;;;;;3.11;100.00;98741.28;4970767;28;20570;-60
2023/03/07 01:28:45;;;;;;;31.73;23.50;;;;;;;3.14;100.00;98743.69;4971125;28;20875;-60
2023/03/07 01:31:11;;;;;;;27.27;20.90;;;;;;;3.04;100.00;98737.41;4964396;28;20227;-61
2023/03/07 01:33:36;;;;;;;29.77;23.13;;;;;;;3.00;100.00;98735.88;4978886;28;20187;-60
2023/03/07 01:36:02;;;;;;;28.50;22.37;;;;;;;2.96;100.00;98730.09;4970308;28;20184;-60
2023/03/07 01:38:32;;;;;;;33.30;23.77;;;;;;;2.98;100.00;98722.44;4971291;28;20624;-60
2023/03/07 01:40:59;;;;;;;29.63;22.23;;;;;;;2.92;100.00;98723.53;4964178;28;20310;-61
2023/03/07 01:43:29;;;;;;;29.50;21.03;;;;;;;2.86;100.00;98722.06;4971331;28;20203;-61
2023/03/07 01:46:29;;;;;;;29.80;21.60;;;;;;;2.78;100.00;98720.78;4970383;28;20281;-61
2023/03/07 01:49:12;;;;;;;29.00;21.70;;;;;;;2.85;100.00;98717.91;4952079;28;20204;-60
2023/03/07 01:51:40;;;;;;;27.50;21.40;;;;;;;2.84;100.00;98713.72;4964238;28;20334;-61
2023/03/07 01:54:10;;;;;;;28.77;21.30;;;;;;;2.90;100.00;98710.06;4970911;28;20187;-60
2023/03/07 01:56:37;;;;;;;30.93;21.93;;;;;;;2.80;100.00;98709.66;4970653;28;20542;-62
2023/03/07 01:59:03;;;;;;;26.53;21.73;;;;;;;2.87;100.00;98705.13;4971048;28;20206;-61
2023/03/07 02:01:28;;;;;;;25.87;20.83;;;;;;;2.91;100.00;98709.19;4964355;28;20245;-60
2023/03/07 02:04:00;;;;;;;28.33;21.23;;;;;;;2.86;100.00;98691.59;4975953;28;20203;-61
2023/03/07 02:06:29;;;;;;;25.77;20.83;;;;;;;2.79;100.00;98690.25;4970738;28;20180;-62
2023/03/07 02:08:57;;;;;;;25.53;19.97;;;;;;;2.80;100.00;98678.38;4971132;28;20560;-62
2023/03/07 02:11:23;;;;;;;25.23;19.93;;;;;;;2.84;100.00;98667.16;4972379;28;20230;-61
2023/03/07 02:13:49;;;;;;;21.20;17.77;;;;;;;2.87;100.00;98675.47;4961419;28;20249;-61
2023/03/07 02:16:14;;;;;;;25.17;19.13;;;;;;;2.86;100.00;98667.94;4971467;28;20188;-61
2023/03/07 02:18:44;;;;;;;23.20;19.37;;;;;;;2.86;100.00;98666.19;4970432;28;20232;-64
2023/03/07 02:21:26;;;;;;;21.77;17.30;;;;;;;2.83;100.00;98662.97;4972172;28;20261;-61
2023/03/07 02:24:04;;;;;;;21.60;17.50;;;;;;;2.79;100.00;98656.41;4965862;28;20315;-61
2023/03/07 02:26:29;;;;;;;19.10;16.53;;;;;;;2.85;100.00;98653.56;4961211;28;20195;-60
2023/03/07 02:28:56;;;;;;;21.20;16.43;;;;;;;2.90;100.00;98655.03;4971791;28;20221;-61
2023/03/07 02:31:22;;;;;;;20.13;15.70;;;;;;;2.82;100.00;98646.94;4963805;28;20223;-61
2023/03/07 02:33:48;;;;;;;19.37;15.53;;;;;;;2.78;100.00;98650.50;4970801;28;20180;-61
2023/03/07 02:36:19;;;;;;;18.13;14.63;;;;;;;2.84;100.00;98645.16;4971655;28;20239;-61
2023/03/07 02:38:47;;;;;;;18.13;15.53;;;;;;;3.01;100.00;98644.34;4970575;28;20179;-61
2023/03/07 02:41:15;;;;;;;18.17;14.87;;;;;;;2.94;100.00;98643.00;4963952;28;20226;-62
2023/03/07 02:43:41;;;;;;;20.47;15.43;;;;;;;2.90;100.00;98633.88;4969621;28;20557;-61
2023/03/07 02:46:06;;;;;;;17.30;15.33;;;;;;;2.90;100.00;98636.41;4971398;28;20199;-61
2023/03/07 02:48:32;;;;;;;16.13;13.97;;;;;;;2.96;100.00;98642.94;4974973;28;20186;-61
2023/03/07 02:50:57;;;;;;;16.77;14.70;;;;;;;2.81;100.00;98631.75;4972601;28;20234;-61
2023/03/07 02:53:23;;;;;;;17.00;14.27;;;;;;;2.75;100.00;98645.56;4983335;28;20179;-61
2023/03/07 02:55:48;;;;;;;16.67;14.67;;;;;;;2.83;100.00;98633.34;4974120;28;20263;-66
2023/03/07 02:58:13;;;;;;;14.63;13.07;;;;;;;2.85;100.00;98631.56;4974313;28;20180;-61
2023/03/07 03:00:38;;;;;;;17.10;14.20;;;;;;;2.78;100.00;98627.66;4969608;28;20238;-61
2023/03/07 03:03:04;;;;;;;14.67;11.63;;;;;;;2.79;100.00;98629.31;4973701;28;20196;-61
2023/03/07 03:05:29;;;;;;;15.67;13.10;;;;;;;2.83;100.00;98628.25;4975253;28;20218;-61
2023/03/07 03:07:55;;;;;;;15.47;12.63;;;;;;;2.69;100.00;98628.91;4981575;28;20187;-61
2023/03/07 03:10:20;;;;;;;15.80;12.50;;;;;;;2.70;100.00;98629.72;4967560;28;20202;-63
2023/03/07 03:12:46;;;;;;;14.67;12.57;;;;;;;2.81;100.00;98632.56;4987390;28;20187;-62
2023/03/07 03:15:11;;;;;;;14.30;11.73;;;;;;;2.84;100.00;98629.06;4973716;28;20196;-62
2023/03/07 03:17:37;;;;;;;13.73;12.23;;;;;;;3.03;100.00;98623.97;4973314;28;20199;-62
2023/03/07 03:20:08;;;;;;;14.13;11.60;;;;;;;3.00;100.00;98624.09;4967343;28;20224;-62
2023/03/07 03:22:33;;;;;;;13.73;11.83;;;;;;;3.05;100.00;98620.47;4970542;28;20229;-61
2023/03/07 03:24:58;;;;;;;13.27;11.87;;;;;;;2.85;100.00;98623.94;4973503;28;20207;-61
2023/03/07 03:27:24;;;;;;;13.30;11.90;;;;;;;2.97;100.00;98612.38;4974107;28;20297;-61
2023/03/07 03:29:53;;;;;;;12.83;11.40;;;;;;;2.87;100.00;98609.44;4974382;28;20230;-64
2023/03/07 03:32:18;;;;;;;13.83;12.00;;;;;;;2.90;100.00;98608.47;4979707;28;20697;-61
2023/03/07 03:34:43;;;;;;;15.63;12.73;;;;;;;2.71;100.00;98611.06;4974389;28;20172;-61
2023/03/07 03:37:08;;;;;;;13.97;12.47;;;;;;;2.78;100.00;98607.34;4974066;28;20259;-61
2023/03/07 03:39:34;;;;;;;13.27;11.83;;;;;;;2.74;100.00;98610.88;4974531;28;20192;-61
2023/03/07 03:41:59;;;;;;;13.83;11.83;;;;;;;2.73;100.00;98607.53;4979008;28;20337;-61
2023/03/07 03:44:24;;;;;;;12.73;11.07;;;;;;;2.83;100.00;98605.41;4974654;28;20211;-61
2023/03/07 03:46:50;;;;;;;15.03;11.13;;;;;;;2.88;100.00;98606.00;4972669;28;20598;-61
2023/03/07 03:49:15;;;;;;;15.50;13.50;;;;;;;2.86;100.00;98605.25;4974104;28;20184;-63
2023/03/07 03:51:41;;;;;;;14.07;12.57;;;;;;;2.88;100.00;98600.94;4976518;28;20223;-62
2023/03/07 03:54:06;;;;;;;14.63;12.80;;;;;;;2.80;100.00;98600.44;4976554;28;20195;-62
2023/03/07 03:56:31;;;;;;;14.67;12.53;;;;;;;2.85;100.00;98597.69;4973732;28;20221;-62
2023/03/07 03:58:57;;;;;;;14.77;12.40;;;;;;;2.90;100.00;98593.22;4972190;28;20184;-61
2023/03/07 04:01:25;;;;;;;15.87;13.03;;;;;;;2.82;100.00;98595.31;4946100;28;20725;-61
2023/03/07 04:03:52;;;;;;;15.93;13.13;;;;;;;2.78;100.00;98586.19;4968276;28;20363;-61
2023/03/07 04:06:23;;;;;;;16.47;14.03;;;;;;;2.81;100.00;98588.59;4972228;28;20210;-60
2023/03/07 04:08:50;;;;;;;19.37;14.47;;;;;;;2.80;100.00;98587.75;4972379;28;20179;-60
2023/03/07 04:11:16;;;;;;;17.17;13.93;;;;;;;2.85;100.00;98585.00;4965619;28;20239;-61
2023/03/07 04:13:41;;;;;;;18.10;14.70;;;;;;;2.85;100.00;98585.00;4972514;28;20183;-60
2023/03/07 04:16:07;;;;;;;19.10;15.77;;;;;;;2.90;100.00;98576.28;4971424;28;20277;-60
2023/03/07 04:18:33;;;;;;;22.33;14.87;;;;;;;2.85;100.00;98569.75;4972538;28;20350;-60
2023/03/07 04:20:59;;;;;;;19.77;16.20;;;;;;;2.89;100.00;98579.72;4965908;28;20330;-60
2023/03/07 04:23:24;;;;;;;18.90;16.37;;;;;;;2.78;100.00;98571.78;4965484;28;20665;-60
2023/03/07 04:25:54;;;;;;;21.63;16.83;;;;;;;2.86;100.00;98568.88;4960202;28;20184;-63
2023/03/07 04:28:20;;;;;;;21.37;16.50;;;;;;;2.87;100.00;98570.53;4971508;28;20179;-61
2023/03/07 04:30:48;;;;;;;21.00;15.93;;;;;;;2.85;100.00;98564.69;4954165;28;20317;-61
2023/03/07 04:33:14;;;;;;;20.40;16.77;;;;;;;2.89;100.00;98558.56;4980840;28;20175;-60
2023/03/07 04:35:39;;;;;;;19.10;16.97;;;;;;;2.83;100.00;98556.31;4973439;28;20647;-61
2023/03/07 04:38:05;;;;;;;20.40;16.60;;;;;;;2.81;100.00;98558.94;4972788;28;20197;-61
2023/03/07 04:40:31;;;;;;;20.07;17.03;;;;;;;2.86;100.00;98558.72;4965110;28;20245;-61
2023/03/07 04:42:56;;;;;;;24.27;19.37;;;;;;;2.82;100.00;98567.38;4982302;28;20207;-61
2023/03/07 04:45:21;;;;;;;24.67;19.30;;;;;;;2.92;100.00;98557.63;4972128;28;20779;-61
2023/03/07 04:47:47;;;;;;;22.43;18.43;;;;;;;2.87;100.00;98550.22;4972978;28;20173;-60
2023/03/07 04:50:12;;;;;;;24.87;18.63;;;;;;;2.84;100.00;98548.63;4964316;28;20223;-60
2023/03/07 04:52:37;;;;;;;24.20;18.63;;;;;;;2.86;100.00;98543.47;4971599;28;20261;-60
2023/03/07 04:55:03;;;;;;;22.63;17.83;;;;;;;2.95;100.00;98545.56;4971901;28;20202;-61
2023/03/07 04:57:28;;;;;;;22.70;18.33;;;;;;;2.86;100.00;98541.75;4972777;28;20341;-61
2023/03/07 04:59:53;;;;;;;23.00;18.70;;;;;;;2.82;100.00;98540.25;4972725;28;20638;-61
2023/03/07 05:02:18;;;;;;;24.50;19.00;;;;;;;2.72;100.00;98544.13;4976124;28;20297;-61
2023/03/07 05:04:44;;;;;;;23.00;17.43;;;;;;;2.73;100.00;98536.44;4968812;28;20213;-60
2023/03/07 05:07:09;;;;;;;23.60;18.97;;;;;;;2.73;100.00;98538.97;4977466;28;20537;-60
2023/03/07 05:09:35;;;;;;;25.30;19.80;;;;;;;2.74;100.00;98532.19;4975024;28;20192;-61
2023/03/07 05:12:00;;;;;;;21.97;17.67;;;;;;;2.70;100.00;98533.22;4964070;28;20251;-60
2023/03/07 05:14:25;;;;;;;28.00;18.10;;;;;;;2.86;100.00;98539.22;4971757;28;20207;-60
2023/03/07 05:16:51;;;;;;;22.43;18.00;;;;;;;2.83;100.00;98529.22;4972275;28;20455;-60
2023/03/07 05:19:16;;;;;;;24.27;18.10;;;;;;;3.00;100.00;98538.56;4972756;28;20270;-60
2023/03/07 05:21:43;;;;;;;25.03;18.20;;;;;;;3.01;100.00;98531.75;4964897;28;20317;-61
2023/03/07 05:24:08;;;;;;;21.63;17.57;;;;;;;2.99;100.00;98525.91;4974727;28;20246;-61
2023/03/07 05:26:34;;;;;;;22.53;17.37;;;;;;;2.89;100.00;98523.84;4972488;28;20180;-60
2023/03/07 05:28:59;;;;;;;20.03;17.17;;;;;;;2.88;100.00;98524.72;4971600;28;20187;-60
2023/03/07 05:31:25;;;;;;;22.57;17.43;;;;;;;2.98;100.00;98522.56;4972770;28;20336;-61
2023/03/07 05:33:50;;;;;;;20.87;16.53;;;;;;;2.99;100.00;98519.13;4972470;28;20195;-61
2023/03/07 05:36:16;;;;;;;21.93;16.93;;;;;;;3.09;100.00;98519.50;4971877;28;20190;-61
2023/03/07 05:38:41;;;;;;;23.27;17.63;;;;;;;3.05;100.00;98516.28;4972538;28;20577;-61
2023/03/07 05:41:07;;;;;;;20.87;16.60;;;;;;;3.01;100.00;98524.94;4970690;28;20849;-62
2023/03/07 05:43:32;;;;;;;22.57;17.43;;;;;;;3.05;100.00;98521.38;4971345;28;20285;-62
2023/03/07 05:45:57;;;;;;;23.63;17.37;;;;;;;3.09;100.00;98521.22;4971916;28;20191;-61
2023/03/07 05:48:23;;;;;;;21.50;17.33;;;;;;;3.06;100.00;98514.56;4971303;28;20180;-61
2023/03/07 05:50:48;;;;;;;20.23;16.83;;;;;;;3.00;100.00;98512.31;4968188;28;20315;-61
2023/03/07 05:53:13;;;;;;;21.23;16.10;;;;;;;2.88;100.00;98518.84;4981638;28;20262;-60
2023/03/07 05:55:38;;;;;;;21.17;16.20;;;;;;;2.94;100.00;98518.53;4971116;28;20188;-60
2023/03/07 05:58:04;;;;;;;21.63;16.87;;;;;;;2.97;100.00;98515.84;4971404;28;20264;-60
2023/03/07 06:00:29;;;;;;;21.83;17.07;;;;;;;2.92;100.00;98509.34;4965888;28;20230;-60
2023/03/07 06:02:54;;;;;;;20.50;17.03;;;;;;;2.84;100.00;98512.25;4983858;28;20199;-60
2023/03/07 06:05:20;;;;;;;20.97;16.80;;;;;;;2.95;100.00;98515.09;4972113;28;20187;-60
2023/03/07 06:07:45;;;;;;;19.30;16.07;;;;;;;3.04;100.00;98513.84;4974521;28;20180;-60
2023/03/07 06:10:11;;;;;;;20.53;16.53;;;;;;;3.05;100.00;98512.91;4963222;28;20184;-61
2023/03/07 06:12:36;;;;;;;23.07;16.90;;;;;;;3.03;100.00;98507.09;4966806;28;20188;-61
2023/03/07 06:15:02;;;;;;;19.80;15.53;;;;;;;2.98;100.00;98507.31;4966408;28;20947;-61
2023/03/07 06:17:27;;;;;;;22.50;16.40;;;;;;;2.91;100.00;98503.44;4970359;28;20184;-61
2023/03/07 06:19:52;;;;;;;21.47;16.90;;;;;;;2.95;100.00;98506.66;4972055;28;20247;-63
2023/03/07 06:22:18;;;;;;;23.50;16.03;;;;;;;2.95;100.00;98511.72;4964561;28;20636;-61
2023/03/07 06:24:43;;;;;;;19.93;15.87;;;;;;;3.06;100.00;98505.25;4975805;28;20203;-61
2023/03/07 06:27:08;;;;;;;23.27;15.50;;;;;;;3.02;100.00;98513.88;4974499;28;20522;-63
2023/03/07 06:29:34;;;;;;;20.90;16.43;;;;;;;2.96;100.00;98513.38;4973810;28;20191;-61
2023/03/07 06:31:59;;;;;;;21.33;15.70;;;;;;;3.01;100.00;98514.78;4948359;28;20228;-61
2023/03/07 06:34:24;;;;;;;19.87;15.73;;;;;;;3.10;100.00;98523.69;4970058;28;20184;-61
2023/03/07 06:36:50;;;;;;;20.20;15.77;;;;;;;3.11;100.00;98510.06;4970677;28;20190;-61
2023/03/07 06:39:19;;;;;;;21.60;15.73;;;;;;;3.15;100.00;98511.59;4956146;28;20216;-60
2023/03/07 06:41:49;;;;;;;20.10;16.03;;;;;;;3.20;100.00;98516.41;4972924;28;20235;-61
2023/03/07 06:44:16;;;;;;;25.27;16.87;;;;;;;3.22;100.00;98512.09;4956329;28;20212;-63
2023/03/07 06:46:42;;;;;;;18.63;16.17;;;;;;;3.23;100.00;98513.75;4966996;28;20210;-61
2023/03/07 06:49:07;;;;;;;19.27;15.57;;;;;;;3.35;100.00;98518.22;4967395;28;20279;-63
2023/03/07 06:51:33;;;;;;;17.60;14.40;;;;;;;3.41;100.00;98518.78;4970164;28;20330;-62
2023/03/07 06:53:58;;;;;;;19.83;15.13;;;;;;;3.33;100.00;98520.00;4971635;28;20195;-61
2023/03/07 06:56:24;;;;;;;18.93;14.83;;;;;;;3.41;100.00;98523.88;4963488;28;20636;-62
2023/03/07 06:58:49;;;;;;;21.07;15.33;;;;;;;3.46;100.00;98524.47;4963617;28;20192;-62
2023/03/07 07:01:17;;;;;;;17.07;13.97;;;;;;;3.61;100.00;98522.88;4955645;28;20597;-63
2023/03/07 07:03:43;;;;;;;19.87;16.47;;;;;;;3.67;100.00;98520.00;4957053;28;20209;-65
2023/03/07 07:06:08;;;;;;;18.37;14.23;;;;;;;3.44;100.00;98527.09;4961174;28;21048;-62
2023/03/07 07:08:33;;;;;;;19.70;15.30;;;;;;;3.48;100.00;98527.75;4967775;28;20193;-62
2023/03/07 07:10:59;;;;;;;17.03;12.77;;;;;;;3.63;100.00;98523.63;4965762;28;20762;-62
2023/03/07 07:13:24;;;;;;;22.77;14.60;;;;;;;3.76;100.00;98527.19;4964658;28;20242;-64
2023/03/07 07:15:49;;;;;;;21.77;15.00;;;;;;;3.80;100.00;98523.56;4965755;28;20193;-63
2023/03/07 07:18:14;;;;;;;17.43;14.20;;;;;;;3.91;100.00;98522.16;4963848;28;20540;-65
2023/03/07 07:20:40;;;;;;;17.40;14.30;;;;;;;3.77;100.00;98521.19;4962028;28;20298;-62
2023/03/07 07:23:05;;;;;;;16.63;14.57;;;;;;;3.83;100.00;98525.97;4969844;28;20207;-63
2023/03/07 07:25:30;;;;;;;19.57;14.33;;;;;;;3.79;100.00;98521.09;4955680;28;20178;-62
2023/03/07 07:27:55;;;;;;;16.07;13.80;;;;;;;3.85;100.00;98526.69;4967528;28;20185;-62
2023/03/07 07:30:21;;;;;;;16.87;12.63;;;;;;;3.90;100.00;98513.72;4959217;28;20643;-62
2023/03/07 07:32:46;;;;;;;16.27;13.93;;;;;;;3.97;100.00;98517.59;4970885;28;20189;-62
2023/03/07 07:35:12;;;;;;;17.03;13.80;;;;;;;4.00;100.00;98524.25;4974375;28;20184;-63
2023/03/07 07:37:37;;;;;;;15.63;13.23;;;;;;;4.00;100.00;98519.16;4974398;28;20695;-60
2023/03/07 07:40:04;;;;;;;15.80;13.37;;;;;;;4.04;100.00;98513.84;4971643;28;20716;-62
2023/03/07 07:42:29;;;;;;;20.00;13.57;;;;;;;4.32;100.00;98519.16;4972383;28;20197;-62
2023/03/07 07:44:54;;;;;;;15.70;13.10;;;;;;;4.42;100.00;98522.84;4973084;28;20229;-61
2023/03/07 07:47:20;;;;;;;17.33;13.57;;;;;;;4.65;100.00;98516.50;4972966;28;20189;-61
2023/03/07 07:49:45;;;;;;;15.73;12.07;;;;;;;4.66;100.00;98523.25;4963998;28;20186;-61
2023/03/07 07:52:11;;;;;;;18.70;12.43;;;;;;;4.70;100.00;98518.75;4966683;28;21319;-60
2023/03/07 07:54:36;;;;;;;17.67;12.90;;;;;;;4.70;100.00;98516.22;4974358;28;20270;-61
2023/03/07 07:57:01;;;;;;;21.80;12.50;;;;;;;4.78;100.00;98520.91;4972469;28;20650;-61
2023/03/07 07:59:27;;;;;;;14.57;12.53;;;;;;;4.75;100.00;98509.16;4973836;28;20599;-62
2023/03/07 08:01:52;;;;;;;15.30;11.63;;;;;;;4.61;100.00;98514.19;4967799;28;20301;-61
2023/03/07 08:04:17;;;;;;;15.93;11.83;;;;;;;4.51;100.00;98524.91;4975122;28;20237;-61
2023/03/07 08:06:43;;;;;;;15.00;11.60;;;;;;;4.73;100.00;98517.81;4975637;28;20178;-61
2023/03/07 08:09:09;;;;;;;14.97;11.63;;;;;;;4.89;100.00;98515.19;4980673;28;20173;-62
2023/03/07 08:11:34;;;;;;;14.00;11.20;;;;;;;5.00;100.00;98516.22;4975169;28;20240;-64
2023/03/07 08:14:01;;;;;;;17.13;13.03;;;;;;;5.20;100.00;98510.88;4977318;28;20269;-61
2023/03/07 08:16:26;;;;;;;16.87;11.97;;;;;;;5.43;100.00;98505.28;4965324;28;20229;-61
2023/03/07 08:18:54;;;;;;;14.50;11.17;;;;;;;5.69;100.00;98495.25;4959577;28;20230;-62
2023/03/07 08:21:20;;;;;;;14.75;12.95;;;;;;;6.02;100.00;98493.34;4965013;28;20456;-63
2023/03/07 08:23:45;;;;;;;18.50;11.93;;;;;;;6.22;100.00;98492.91;4971869;28;20618;-62
2023/03/07 08:26:12;;;;;;;14.33;11.47;;;;;;;6.44;100.00;98491.56;4972872;28;20202;-62
2023/03/07 08:28:37;;;;;;;15.93;11.97;;;;;;;6.75;100.00;98487.06;4961172;28;20181;-62
2023/03/07 08:31:27;;;;;;;16.27;12.23;;;;;;;6.71;100.00;98481.31;4958757;28;20231;-61
2023/03/07 08:33:53;;;;;;;14.37;10.93;;;;;;;6.57;100.00;98476.28;4961553;28;20730;-64
2023/03/07 08:36:20;;;;;;;15.57;10.90;;;;;;;6.54;100.00;98468.81;4973011;28;20188;-61
2023/03/07 08:38:50;;;;;;;13.60;10.20;;;;;;;6.35;100.00;98469.16;4973445;28;20232;-62
2023/03/07 08:41:17;;;;;;;15.70;11.43;;;;;;;6.54;100.00;98464.53;4965673;28;20236;-61
2023/03/07 08:43:42;;;;;;;13.87;10.67;;;;;;;6.98;100.00;98464.28;4979495;28;20691;-61
2023/03/07 08:46:07;;;;;;;12.90;11.40;;;;;;;7.07;99.65;98468.78;4972700;28;20188;-62
2023/03/07 08:48:33;;;;;;;13.20;9.90;;;;;;;7.21;97.93;98470.44;4973017;28;20199;-62
2023/03/07 08:51:07;;;;;;;13.10;10.20;;;;;;;6.83;97.36;98468.66;4970816;28;20239;-60
2023/03/07 08:53:33;;;;;;;12.67;10.93;;;;;;;6.28;100.00;98469.53;4972396;28;20175;-61
2023/03/07 08:55:58;;;;;;;12.53;10.43;;;;;;;6.54;100.00;98473.94;4971754;28;20603;-61
2023/03/07 08:58:23;;;;;;;12.97;11.20;;;;;;;6.60;100.00;98464.13;4972047;28;20179;-60
2023/03/07 09:00:49;;;;;;;12.43;9.90;;;;;;;6.75;99.03;98467.44;4964070;28;20245;-61
2023/03/07 09:03:14;;;;;;;14.53;9.40;;;;;;;6.69;98.42;98464.47;4982167;28;20294;-61
2023/03/07 09:05:39;;;;;;;11.50;10.33;;;;;;;6.84;98.48;98458.34;4973371;28;20211;-61
2023/03/07 09:08:06;;;;;;;15.77;9.83;;;;;;;7.21;97.07;98465.31;4973443;28;20190;-62
2023/03/07 09:10:32;;;;;;;13.07;8.97;;;;;;;7.23;95.25;98461.75;4964300;28;20310;-61
2023/03/07 09:12:57;;;;;;;10.00;9.00;;;;;;;7.42;93.91;98460.50;4961123;28;20295;-61
2023/03/07 09:15:23;;;;;;;12.37;10.27;;;;;;;7.50;92.86;98471.03;4954898;28;20189;-60
2023/03/07 09:17:48;;;;;;;10.37;9.23;;;;;;;8.01;90.25;98469.28;4960562;28;20259;-62
2023/03/07 09:20:17;;;;;;;11.33;9.90;;;;;;;8.97;83.81;98473.53;4953293;28;20195;-61
2023/03/07 09:22:44;;;;;;;13.47;10.23;;;;;;;9.39;74.50;98469.63;4981386;28;20196;-61
2023/03/07 09:25:09;;;;;;;11.03;8.90;;;;;;;9.55;70.69;98467.53;4972123;28;20541;-62
2023/03/07 09:27:35;;;;;;;12.57;9.33;;;;;;;9.89;69.16;98470.06;4972422;28;20187;-61
2023/03/07 09:30:01;;;;;;;11.43;8.77;;;;;;;9.84;65.79;98462.69;4972923;28;20204;-63
2023/03/07 09:32:27;;;;;;;11.67;8.27;;;;;;;9.20;68.28;98465.88;4962202;28;20326;-62
2023/03/07 09:34:53;;;;;;;9.90;8.90;;;;;;;9.07;71.18;98467.72;4971985;28;20194;-62
2023/03/07 09:37:20;;;;;;;10.70;9.40;;;;;;;8.94;73.04;98470.38;4974483;28;20267;-63
2023/03/07 09:39:52;;;;;;;10.03;8.47;;;;;;;8.82;74.97;98472.09;4972489;28;20184;-62
2023/03/07 09:42:50;;;;;;;12.07;8.80;;;;;;;8.20;78.35;98466.25;4977141;28;20324;-62
2023/03/07 09:45:46;;;;;;;9.60;8.57;;;;;;;7.92;79.53;98463.06;4973642;28;20734;-63
2023/03/07 09:48:28;;;;;;;10.43;9.32;;;;;;;8.09;78.08;98456.75;4912348;29;20775;-61
2023/03/07 09:51:25;;;;;;;10.63;8.70;;;;;;;7.56;82.60;98459.56;4887937;29;20233;-62
2023/03/07 09:54:01;;;;;;;10.20;9.15;;;;;;;7.87;80.26;98448.00;4896755;29;20419;-70
2023/03/07 09:56:34;;;;;;;18.00;10.00;;;;;;;7.79;80.43;98447.75;4898885;29;20541;-61
2023/03/07 09:59:21;;;;;;;10.07;8.20;;;;;;;7.64;80.19;98444.50;4916696;29;20202;-64
2023/03/07 10:01:50;;;;;;;10.40;8.87;;;;;;;7.59;81.97;98436.31;4907329;29;20288;-62
2023/03/07 10:04:25;;;;;;;10.27;9.17;;;;;;;7.65;82.00;98437.63;4916754;29;20210;-62
2023/03/07 10:06:57;;;;;;;10.13;9.00;;;;;;;8.09;79.14;98433.72;4917464;29;20202;-62
2023/03/07 10:09:24;;;;;;;10.53;8.37;;;;;;;8.23;75.82;98435.28;4901563;29;20187;-63
2023/03/07 10:12:17;;;;;;;10.27;7.90;;;;;;;8.13;71.74;98435.13;4890486;29;20336;-62
2023/03/07 10:15:20;;;;;;;9.97;8.20;;;;;;;8.87;67.73;98436.69;4915981;29;20727;-60
2023/03/07 10:18:00;;;;;;;12.27;8.37;;;;;;;9.50;62.75;98426.81;4894777;29;20245;-62
2023/03/07 10:20:41;;;;;;;9.17;8.27;;;;;;;9.52;60.50;98435.19;4894934;28;20233;-61
2023/03/07 10:23:36;;;;;;;10.07;7.87;;;;;;;9.62;58.60;98426.78;4902088;29;20567;-61
2023/03/07 10:26:28;;;;;;;8.20;7.27;;;;;;;9.49;58.55;98414.91;4971688;28;20632;-63
2023/03/07 10:28:58;;;;;;;8.10;7.30;;;;;;;9.93;57.58;98417.50;4974144;28;20274;-61
2023/03/07 10:31:38;;;;;;;8.23;7.23;;;;;;;10.00;55.71;98410.94;4965428;28;20327;-62
2023/03/07 10:34:27;;;;;;;9.73;7.93;;;;;;;9.65;55.62;98401.69;4967052;28;20658;-62
2023/03/07 10:37:10;;;;;;;8.60;7.70;;;;;;;9.20;58.93;98401.72;4960390;28;20254;-63
2023/03/07 10:39:52;;;;;;;8.70;6.70;;;;;;;8.97;58.23;98404.28;4980097;28;20184;-63
2023/03/07 10:42:26;;;;;;;9.13;7.50;;;;;;;9.09;58.41;98405.13;4978146;28;20580;-62
2023/03/07 10:44:52;;;;;;;9.47;7.17;;;;;;;8.96;60.11;98401.84;4970673;28;20174;-62
2023/03/07 10:47:27;;;;;;;9.73;8.30;;;;;;;8.80;59.04;98405.53;4974615;28;20195;-61
2023/03/07 10:50:35;;;;;;;9.23;8.23;;;;;;;8.61;60.32;98397.56;4974892;28;20278;-61
2023/03/07 10:53:04;;;;;;;13.67;7.73;;;;;;;8.66;61.18;98400.66;4915007;29;20756;-61
2023/03/07 10:55:37;;;;;;;8.93;8.03;;;;;;;8.62;60.96;98394.94;4935173;29;20567;-62
2023/03/07 10:58:26;;;;;;;8.50;7.20;;;;;;;8.69;60.62;98400.41;4935165;29;20181;-63
2023/03/07 11:01:10;;;;;;;8.87;7.53;;;;;;;8.38;61.30;98398.31;4944205;28;20604;-61
2023/03/07 11:03:44;;;;;;;10.03;7.83;;;;;;;8.58;63.18;98390.13;4942582;29;20268;-63
2023/03/07 11:06:27;;;;;;;8.47;7.10;;;;;;;8.71;63.68;98393.44;4933945;29;20672;-61
2023/03/07 11:08:52;;;;;;;8.07;7.23;;;;;;;8.80;61.82;98395.28;4917596;29;20281;-62
2023/03/07 11:11:24;;;;;;;10.07;7.50;;;;;;;8.94;61.24;98385.75;4924748;29;20233;-60
2023/03/07 11:14:05;;;;;;;9.50;7.43;;;;;;;8.97;58.93;98380.41;4923020;29;20189;-59
2023/03/07 11:16:30;;;;;;;9.27;7.40;;;;;;;8.96;58.51;98389.84;4926311;29;20203;-62
2023/03/07 11:18:56;;;;;;;8.33;7.47;;;;;;;8.76;58.65;98378.50;4933068;29;20313;-61
2023/03/07 11:21:31;;;;;;;9.60;7.40;;;;;;;8.68;60.53;98371.41;4916473;28;20610;-61
2023/03/07 11:24:21;;;;;;;8.27;7.43;;;;;;;9.17;59.56;98366.88;4938961;29;20675;-61
2023/03/07 11:26:53;;;;;;;9.20;7.73;;;;;;;9.40;56.79;98363.47;4923357;29;20186;-62